Em Athens — V7US8 — position and weather

sailwx.info

Track history (hours):
 
Tides and Currents Weather Stations Pressure Air Temp Water Temp Dewpoint Dewpoint Depression Visibility Wind Speed Wind Dir Waves Ship Positions

Em Athens

Last reported at 2014-Jul-23 07:33 UTC. Time now 2014-Jul-23 07:48 UTC.
Position N 51°53' E 004°24'.

; draft 7.5 m.

Type: Ship. MMSI: 538004019.

Date/timePositionNaut miles runAvg speedWind from/ knotsBaromVisibWave heightAir tempDewpointWater temp
2014-Jul-23 07:33N 51°53' E 004°24'0 0.0
2014-Jul-23 06:33N 51°53' E 004°24'0 0.0
2014-Jul-23 05:33N 51°53' E 004°24'0 0.0
2014-Jul-23 04:30N 51°53' E 004°24'0 0.0
2014-Jul-23 03:33N 51°53' E 004°24'0 0.0
2014-Jul-23 02:33N 51°53' E 004°24'0 0.0
2014-Jul-23 01:33N 51°53' E 004°24'0 0.0
2014-Jul-23 00:33N 51°53' E 004°24'0 0.0
2014-Jul-22 23:33N 51°53' E 004°24'0 0.0
2014-Jul-22 22:30N 51°53' E 004°24'0 0.0
2014-Jul-22 21:33N 51°53' E 004°24'0 0.0
2014-Jul-22 20:27N 51°53' E 004°24'0 0.0
2014-Jul-22 19:33N 51°53' E 004°24'0 0.0
2014-Jul-22 18:33N 51°53' E 004°24'0 0.0
2014-Jul-22 17:30N 51°53' E 004°24'0 0.0
2014-Jul-22 16:30N 51°53' E 004°24'0 0.0
2014-Jul-22 15:33N 51°53' E 004°24'0 0.0
2014-Jul-22 14:30N 51°53' E 004°24'0 0.0
2014-Jul-22 13:33N 51°53' E 004°24'0 0.0
2014-Jul-22 12:30N 51°53' E 004°24'0 0.0
2014-Jul-22 11:33N 51°53' E 004°24'0 0.0
2014-Jul-22 10:30N 51°53' E 004°24'0 0.0
2014-Jul-22 09:33N 51°53' E 004°24'0 0.0
2014-Jul-22 08:33N 51°53' E 004°24'0 0.0
2014-Jul-22 07:33N 51°53' E 004°24'0 0.0
2014-Jul-22 06:33N 51°53' E 004°24'0 0.0
2014-Jul-22 05:30N 51°53' E 004°24'0 0.0
2014-Jul-22 04:33N 51°53' E 004°24'0 0.0
2014-Jul-22 03:33N 51°53' E 004°24'0 0.0
2014-Jul-22 02:30N 51°53' E 004°24'0 0.0
2014-Jul-22 01:33N 51°53' E 004°24'0 0.0
2014-Jul-22 00:33N 51°53' E 004°24'0 0.0
2014-Jul-21 23:30N 51°53' E 004°24'0 0.0
2014-Jul-21 22:30N 51°53' E 004°24'0 0.0
2014-Jul-21 21:33N 51°53' E 004°24'1 1.3
2014-Jul-21 20:33N 51°54' E 004°22'2 7.2
2014-Jul-21 20:18N 51°54' E 004°20'7 9.7
2014-Jul-21 19:33N 51°57' E 004°10'1212.0
2014-Jul-21 18:33N 52°00' E 003°51'7 6.6
2014-Jul-21 17:33N 51°58' E 003°41'6 6.1
2014-Jul-21 16:33N 51°54' E 003°33'0 0.1
2014-Jul-21 15:19N 51°54' E 003°33'0 0.0
2014-Jul-21 14:07N 51°54' E 003°33'0 0.0
2014-Jul-21 06:10N 51°54' E 003°34'0 0.1
2014-Jul-21 05:28N 51°54' E 003°33'0 0.0
2014-Jul-21 04:31N 51°54' E 003°33'0 0.0
2014-Jul-21 03:28N 51°54' E 003°33'0 0.0
2014-Jul-21 02:28N 51°54' E 003°33'0 0.0
2014-Jul-21 01:31N 51°54' E 003°33'0 0.2
2014-Jul-21 00:22N 51°54' E 003°34'0 0.1
2014-Jul-20 23:19N 51°54' E 003°34'0 0.0
2014-Jul-20 22:31N 51°54' E 003°34'0 0.0
2014-Jul-20 21:31N 51°54' E 003°34'0 0.0
2014-Jul-20 20:08N 51°54' E 003°34'0 0.1
2014-Jul-20 17:28N 51°54' E 003°34'0 0.1
2014-Jul-20 16:28N 51°54' E 003°33'0 0.0
2014-Jul-20 15:28N 51°54' E 003°33'0 0.0
2014-Jul-20 14:25N 51°54' E 003°33'0 0.0
2014-Jul-20 13:31N 51°54' E 003°33'0 0.0
2014-Jul-20 12:28N 51°54' E 003°33'0 0.1
2014-Jul-20 08:25N 51°54' E 003°34'0 0.0
2014-Jul-20 07:28N 51°54' E 003°34'0 0.0
2014-Jul-20 06:28N 51°54' E 003°34'0 0.1
2014-Jul-20 05:25N 51°54' E 003°34'0 0.1
2014-Jul-20 04:22N 51°54' E 003°33'0 0.0
2014-Jul-20 03:31N 51°54' E 003°33'0 0.0
2014-Jul-20 02:31N 51°54' E 003°33'0 0.0
2014-Jul-20 01:31N 51°54' E 003°33'0 0.1
2014-Jul-20 00:19N 51°54' E 003°33'0 0.2
2014-Jul-19 23:28N 51°54' E 003°34'0 0.1
2014-Jul-19 22:26N 51°54' E 003°34'0 0.0
2014-Jul-19 18:31N 51°54' E 003°34'0 0.0
2014-Jul-19 17:25N 51°54' E 003°34'0 0.2
2014-Jul-19 16:25N 51°54' E 003°33'0 0.1
2014-Jul-19 15:31N 51°54' E 003°33'0 0.0
2014-Jul-19 12:22N 51°54' E 003°33'0 0.0
2014-Jul-19 11:31N 51°54' E 003°33'0 0.1
2014-Jul-19 10:07N 51°54' E 003°33'0 0.0
2014-Jul-19 06:04N 51°54' E 003°34'0 0.1
2014-Jul-19 05:22N 51°54' E 003°33'0 0.3
2014-Jul-19 04:31N 51°54' E 003°33'0 0.1
2014-Jul-19 03:31N 51°54' E 003°33'0 0.0
2014-Jul-19 02:31N 51°54' E 003°33'0 0.0
2014-Jul-19 01:31N 51°54' E 003°33'0 0.0
2014-Jul-19 00:31N 51°54' E 003°33'0 0.2
2014-Jul-18 23:25N 51°54' E 003°34'0 0.2
2014-Jul-18 22:13N 51°54' E 003°33'0 0.1
2014-Jul-18 21:31N 51°54' E 003°33'0 0.1
2014-Jul-18 20:28N 51°54' E 003°33'0 0.1
2014-Jul-18 16:13N 51°54' E 003°33'0 0.0
2014-Jul-18 13:28N 51°54' E 003°33'0 0.0
2014-Jul-18 12:10N 51°54' E 003°33'0 0.0
2014-Jul-18 11:31N 51°54' E 003°33'0 0.1
2014-Jul-18 10:31N 51°54' E 003°33'0 0.1
2014-Jul-18 09:28N 51°54' E 003°33'0 0.1
2014-Jul-18 08:31N 51°54' E 003°33'0 0.0
2014-Jul-18 07:31N 51°54' E 003°34'0 0.0
2014-Jul-18 06:31N 51°54' E 003°34'0 0.0
2014-Jul-18 05:31N 51°54' E 003°34'0 0.0
2014-Jul-18 04:31N 51°54' E 003°33'0 0.2
2014-Jul-18 03:31N 51°54' E 003°33'0 0.0
2014-Jul-18 02:31N 51°54' E 003°33'0 0.0
2014-Jul-18 01:31N 51°54' E 003°33'0 0.0
2014-Jul-18 00:31N 51°54' E 003°33'0 0.0
2014-Jul-17 23:31N 51°54' E 003°33'0 0.0
2014-Jul-17 22:32N 51°54' E 003°33'0 0.0
2014-Jul-17 21:31N 51°54' E 003°33'0 0.1
2014-Jul-17 20:31N 51°54' E 003°33'0 0.1
2014-Jul-17 19:25N 51°54' E 003°33'0 0.0
2014-Jul-17 18:31N 51°54' E 003°33'0 0.0
2014-Jul-17 17:31N 51°54' E 003°33'0 0.0
2014-Jul-17 16:31N 51°54' E 003°34'0 0.2
2014-Jul-17 15:31N 51°54' E 003°33'0 0.0
2014-Jul-17 14:31N 51°54' E 003°33'0 0.0
2014-Jul-17 13:31N 51°54' E 003°33'0 0.0
2014-Jul-17 12:32N 51°54' E 003°33'0 0.0
2014-Jul-17 11:32N 51°54' E 003°33'0 0.0
2014-Jul-17 10:31N 51°54' E 003°33'0 0.1
2014-Jul-17 09:28N 51°54' E 003°33'0 0.1
2014-Jul-17 08:31N 51°54' E 003°33'0 0.0
2014-Jul-17 07:31N 51°54' E 003°33'0 0.0
2014-Jul-17 06:28N 51°54' E 003°34'0 0.0
2014-Jul-17 05:16N 51°54' E 003°34'0 0.0
2014-Jul-17 04:31N 51°54' E 003°34'0 0.0
2014-Jul-17 03:32N 51°54' E 003°34'0 0.2
2014-Jul-17 02:31N 51°54' E 003°33'0 0.1
2014-Jul-17 01:31N 51°54' E 003°33'0 0.0
2014-Jul-17 00:31N 51°54' E 003°33'0 0.0
2014-Jul-16 23:31N 51°54' E 003°33'0 0.0
2014-Jul-16 22:25N 51°54' E 003°33'0 0.2
2014-Jul-16 21:13N 51°54' E 003°33'0 0.0
2014-Jul-16 20:25N 51°54' E 003°33'0 0.1
2014-Jul-16 19:31N 51°54' E 003°33'0 0.0
2014-Jul-16 18:31N 51°54' E 003°33'0 0.0
2014-Jul-16 17:25N 51°54' E 003°34'0 0.0
2014-Jul-16 16:28N 51°54' E 003°34'0 0.0
2014-Jul-16 15:28N 51°54' E 003°34'0 0.1
2014-Jul-16 14:31N 51°54' E 003°34'0 0.1
2014-Jul-16 13:25N 51°54' E 003°33'0 0.0
2014-Jul-16 12:25N 51°54' E 003°33'0 0.0
2014-Jul-16 11:28N 51°54' E 003°33'0 0.0
2014-Jul-16 10:31N 51°54' E 003°33'0 0.0
2014-Jul-16 09:31N 51°54' E 003°33'0 0.2
2014-Jul-16 08:31N 51°54' E 003°33'0 0.0
2014-Jul-16 04:04N 51°54' E 003°34'0 0.0
2014-Jul-16 03:17N 51°54' E 003°34'0 0.2
2014-Jul-16 02:10N 51°54' E 003°33'0 0.1
2014-Jul-16 01:31N 51°54' E 003°33'0 0.0
2014-Jul-16 00:31N 51°54' E 003°33'0 0.0
2014-Jul-15 23:28N 51°54' E 003°33'0 0.0
2014-Jul-15 22:32N 51°54' E 003°33'0 0.0
2014-Jul-15 21:31N 51°54' E 003°33'0 0.0
2014-Jul-15 20:31N 51°54' E 003°33'0 0.1
2014-Jul-15 18:22N 51°54' E 003°33'0 0.1
2014-Jul-15 17:28N 51°54' E 003°33'0 0.0
2014-Jul-15 16:31N 51°54' E 003°34'0 0.0
2014-Jul-15 15:31N 51°54' E 003°34'0 0.0
2014-Jul-15 14:31N 51°54' E 003°34'0 0.0
2014-Jul-15 13:28N 51°54' E 003°33'0 0.1
2014-Jul-15 10:25N 51°54' E 003°33'0 0.0
2014-Jul-15 00:19N 51°54' E 003°34'0 0.2
2014-Jul-14 23:25N 51°54' E 003°33'0 0.1
2014-Jul-14 22:31N 51°54' E 003°33'0 0.0
2014-Jul-13 23:13N 51°54' E 003°33'0 0.0
2014-Jul-13 11:16N 51°54' E 003°33'0 0.1
2014-Jul-13 09:25N 51°54' E 003°33'0 0.0
2014-Jul-13 08:28N 51°54' E 003°33'  
Track history (hours):
 
Tides and Currents Weather Stations Pressure Air Temp Water Temp Dewpoint Dewpoint Depression Visibility Wind Speed Wind Dir Waves Ship Positions

Em Athens

Last reported at 2014-Jul-23 07:33 UTC. Time now 2014-Jul-23 07:48 UTC.
Position N 51°53' E 004°24'.

; draft 7.5 m.

Type: Ship. MMSI: 538004019.

Date/timePositionNaut miles runAvg speedWind from/ knotsBaromVisibWave heightAir tempDewpointWater temp
2014-Jul-23 07:33N 51°53' E 004°24'0 0.0
2014-Jul-23 06:33N 51°53' E 004°24'0 0.0
2014-Jul-23 05:33N 51°53' E 004°24'0 0.0
2014-Jul-23 04:30N 51°53' E 004°24'0 0.0
2014-Jul-23 03:33N 51°53' E 004°24'0 0.0
2014-Jul-23 02:33N 51°53' E 004°24'0 0.0
2014-Jul-23 01:33N 51°53' E 004°24'0 0.0
2014-Jul-23 00:33N 51°53' E 004°24'0 0.0
2014-Jul-22 23:33N 51°53' E 004°24'0 0.0
2014-Jul-22 22:30N 51°53' E 004°24'0 0.0
2014-Jul-22 21:33N 51°53' E 004°24'0 0.0
2014-Jul-22 20:27N 51°53' E 004°24'0 0.0
2014-Jul-22 19:33N 51°53' E 004°24'0 0.0
2014-Jul-22 18:33N 51°53' E 004°24'0 0.0
2014-Jul-22 17:30N 51°53' E 004°24'0 0.0
2014-Jul-22 16:30N 51°53' E 004°24'0 0.0
2014-Jul-22 15:33N 51°53' E 004°24'0 0.0
2014-Jul-22 14:30N 51°53' E 004°24'0 0.0
2014-Jul-22 13:33N 51°53' E 004°24'0 0.0
2014-Jul-22 12:30N 51°53' E 004°24'0 0.0
2014-Jul-22 11:33N 51°53' E 004°24'0 0.0
2014-Jul-22 10:30N 51°53' E 004°24'0 0.0
2014-Jul-22 09:33N 51°53' E 004°24'0 0.0
2014-Jul-22 08:33N 51°53' E 004°24'0 0.0
2014-Jul-22 07:33N 51°53' E 004°24'0 0.0
2014-Jul-22 06:33N 51°53' E 004°24'0 0.0
2014-Jul-22 05:30N 51°53' E 004°24'0 0.0
2014-Jul-22 04:33N 51°53' E 004°24'0 0.0
2014-Jul-22 03:33N 51°53' E 004°24'0 0.0
2014-Jul-22 02:30N 51°53' E 004°24'0 0.0
2014-Jul-22 01:33N 51°53' E 004°24'0 0.0
2014-Jul-22 00:33N 51°53' E 004°24'0 0.0
2014-Jul-21 23:30N 51°53' E 004°24'0 0.0
2014-Jul-21 22:30N 51°53' E 004°24'0 0.0
2014-Jul-21 21:33N 51°53' E 004°24'1 1.3
2014-Jul-21 20:33N 51°54' E 004°22'2 7.2
2014-Jul-21 20:18N 51°54' E 004°20'7 9.7
2014-Jul-21 19:33N 51°57' E 004°10'1212.0
2014-Jul-21 18:33N 52°00' E 003°51'7 6.6
2014-Jul-21 17:33N 51°58' E 003°41'6 6.1
2014-Jul-21 16:33N 51°54' E 003°33'0 0.1
2014-Jul-21 15:19N 51°54' E 003°33'0 0.0
2014-Jul-21 14:07N 51°54' E 003°33'0 0.0
2014-Jul-21 06:10N 51°54' E 003°34'0 0.1
2014-Jul-21 05:28N 51°54' E 003°33'0 0.0
2014-Jul-21 04:31N 51°54' E 003°33'0 0.0
2014-Jul-21 03:28N 51°54' E 003°33'0 0.0
2014-Jul-21 02:28N 51°54' E 003°33'0 0.0
2014-Jul-21 01:31N 51°54' E 003°33'0 0.2
2014-Jul-21 00:22N 51°54' E 003°34'0 0.1
2014-Jul-20 23:19N 51°54' E 003°34'0 0.0
2014-Jul-20 22:31N 51°54' E 003°34'0 0.0
2014-Jul-20 21:31N 51°54' E 003°34'0 0.0
2014-Jul-20 20:08N 51°54' E 003°34'0 0.1
2014-Jul-20 17:28N 51°54' E 003°34'0 0.1
2014-Jul-20 16:28N 51°54' E 003°33'0 0.0
2014-Jul-20 15:28N 51°54' E 003°33'0 0.0
2014-Jul-20 14:25N 51°54' E 003°33'0 0.0
2014-Jul-20 13:31N 51°54' E 003°33'0 0.0
2014-Jul-20 12:28N 51°54' E 003°33'0 0.1
2014-Jul-20 08:25N 51°54' E 003°34'0 0.0
2014-Jul-20 07:28N 51°54' E 003°34'0 0.0
2014-Jul-20 06:28N 51°54' E 003°34'0 0.1
2014-Jul-20 05:25N 51°54' E 003°34'0 0.1
2014-Jul-20 04:22N 51°54' E 003°33'0 0.0
2014-Jul-20 03:31N 51°54' E 003°33'0 0.0
2014-Jul-20 02:31N 51°54' E 003°33'0 0.0
2014-Jul-20 01:31N 51°54' E 003°33'0 0.1
2014-Jul-20 00:19N 51°54' E 003°33'0 0.2
2014-Jul-19 23:28N 51°54' E 003°34'0 0.1
2014-Jul-19 22:26N 51°54' E 003°34'0 0.0
2014-Jul-19 18:31N 51°54' E 003°34'0 0.0
2014-Jul-19 17:25N 51°54' E 003°34'0 0.2
2014-Jul-19 16:25N 51°54' E 003°33'0 0.1
2014-Jul-19 15:31N 51°54' E 003°33'0 0.0
2014-Jul-19 12:22N 51°54' E 003°33'0 0.0
2014-Jul-19 11:31N 51°54' E 003°33'0 0.1
2014-Jul-19 10:07N 51°54' E 003°33'0 0.0
2014-Jul-19 06:04N 51°54' E 003°34'0 0.1
2014-Jul-19 05:22N 51°54' E 003°33'0 0.3
2014-Jul-19 04:31N 51°54' E 003°33'0 0.1
2014-Jul-19 03:31N 51°54' E 003°33'0 0.0
2014-Jul-19 02:31N 51°54' E 003°33'0 0.0
2014-Jul-19 01:31N 51°54' E 003°33'0 0.0
2014-Jul-19 00:31N 51°54' E 003°33'0 0.2
2014-Jul-18 23:25N 51°54' E 003°34'0 0.2
2014-Jul-18 22:13N 51°54' E 003°33'0 0.1
2014-Jul-18 21:31N 51°54' E 003°33'0 0.1
2014-Jul-18 20:28N 51°54' E 003°33'0 0.1
2014-Jul-18 16:13N 51°54' E 003°33'0 0.0
2014-Jul-18 13:28N 51°54' E 003°33'0 0.0
2014-Jul-18 12:10N 51°54' E 003°33'0 0.0
2014-Jul-18 11:31N 51°54' E 003°33'0 0.1
2014-Jul-18 10:31N 51°54' E 003°33'0 0.1
2014-Jul-18 09:28N 51°54' E 003°33'0 0.1
2014-Jul-18 08:31N 51°54' E 003°33'0 0.0
2014-Jul-18 07:31N 51°54' E 003°34'0 0.0
2014-Jul-18 06:31N 51°54' E 003°34'0 0.0
2014-Jul-18 05:31N 51°54' E 003°34'0 0.0
2014-Jul-18 04:31N 51°54' E 003°33'0 0.2
2014-Jul-18 03:31N 51°54' E 003°33'0 0.0
2014-Jul-18 02:31N 51°54' E 003°33'0 0.0
2014-Jul-18 01:31N 51°54' E 003°33'0 0.0
2014-Jul-18 00:31N 51°54' E 003°33'0 0.0
2014-Jul-17 23:31N 51°54' E 003°33'0 0.0
2014-Jul-17 22:32N 51°54' E 003°33'0 0.0
2014-Jul-17 21:31N 51°54' E 003°33'0 0.1
2014-Jul-17 20:31N 51°54' E 003°33'0 0.1
2014-Jul-17 19:25N 51°54' E 003°33'0 0.0
2014-Jul-17 18:31N 51°54' E 003°33'0 0.0
2014-Jul-17 17:31N 51°54' E 003°33'0 0.0
2014-Jul-17 16:31N 51°54' E 003°34'0 0.2
2014-Jul-17 15:31N 51°54' E 003°33'0 0.0
2014-Jul-17 14:31N 51°54' E 003°33'0 0.0
2014-Jul-17 13:31N 51°54' E 003°33'0 0.0
2014-Jul-17 12:32N 51°54' E 003°33'0 0.0
2014-Jul-17 11:32N 51°54' E 003°33'0 0.0
2014-Jul-17 10:31N 51°54' E 003°33'0 0.1
2014-Jul-17 09:28N 51°54' E 003°33'0 0.1
2014-Jul-17 08:31N 51°54' E 003°33'0 0.0
2014-Jul-17 07:31N 51°54' E 003°33'0 0.0
2014-Jul-17 06:28N 51°54' E 003°34'0 0.0
2014-Jul-17 05:16N 51°54' E 003°34'0 0.0
2014-Jul-17 04:31N 51°54' E 003°34'0 0.0
2014-Jul-17 03:32N 51°54' E 003°34'0 0.2
2014-Jul-17 02:31N 51°54' E 003°33'0 0.1
2014-Jul-17 01:31N 51°54' E 003°33'0 0.0
2014-Jul-17 00:31N 51°54' E 003°33'0 0.0
2014-Jul-16 23:31N 51°54' E 003°33'0 0.0
2014-Jul-16 22:25N 51°54' E 003°33'0 0.2
2014-Jul-16 21:13N 51°54' E 003°33'0 0.0
2014-Jul-16 20:25N 51°54' E 003°33'0 0.1
2014-Jul-16 19:31N 51°54' E 003°33'0 0.0
2014-Jul-16 18:31N 51°54' E 003°33'0 0.0
2014-Jul-16 17:25N 51°54' E 003°34'0 0.0
2014-Jul-16 16:28N 51°54' E 003°34'0 0.0
2014-Jul-16 15:28N 51°54' E 003°34'0 0.1
2014-Jul-16 14:31N 51°54' E 003°34'0 0.1
2014-Jul-16 13:25N 51°54' E 003°33'0 0.0
2014-Jul-16 12:25N 51°54' E 003°33'0 0.0
2014-Jul-16 11:28N 51°54' E 003°33'0 0.0
2014-Jul-16 10:31N 51°54' E 003°33'0 0.0
2014-Jul-16 09:31N 51°54' E 003°33'0 0.2
2014-Jul-16 08:31N 51°54' E 003°33'0 0.0
2014-Jul-16 04:04N 51°54' E 003°34'0 0.0
2014-Jul-16 03:17N 51°54' E 003°34'0 0.2
2014-Jul-16 02:10N 51°54' E 003°33'0 0.1
2014-Jul-16 01:31N 51°54' E 003°33'0 0.0
2014-Jul-16 00:31N 51°54' E 003°33'0 0.0
2014-Jul-15 23:28N 51°54' E 003°33'0 0.0
2014-Jul-15 22:32N 51°54' E 003°33'0 0.0
2014-Jul-15 21:31N 51°54' E 003°33'0 0.0
2014-Jul-15 20:31N 51°54' E 003°33'0 0.1
2014-Jul-15 18:22N 51°54' E 003°33'0 0.1
2014-Jul-15 17:28N 51°54' E 003°33'0 0.0
2014-Jul-15 16:31N 51°54' E 003°34'0 0.0
2014-Jul-15 15:31N 51°54' E 003°34'0 0.0
2014-Jul-15 14:31N 51°54' E 003°34'0 0.0
2014-Jul-15 13:28N 51°54' E 003°33'0 0.1
2014-Jul-15 10:25N 51°54' E 003°33'0 0.0
2014-Jul-15 00:19N 51°54' E 003°34'0 0.2
2014-Jul-14 23:25N 51°54' E 003°33'0 0.1
2014-Jul-14 22:31N 51°54' E 003°33'0 0.0
2014-Jul-13 23:13N 51°54' E 003°33'0 0.0
2014-Jul-13 11:16N 51°54' E 003°33'0 0.1
2014-Jul-13 09:25N 51°54' E 003°33'0 0.0
2014-Jul-13 08:28N 51°54' E 003°33'  

Dump ship's entire track history